Main page
METAR-TAF:

METAR-TAF

Airports :

Barnaul Airport

Barnaul, Russia

latitude: 53-26N, longitude: 083-31E, elevation: 252 m

Current weather observation

The report was made 37 minutes ago, at 17:30 UTC
Wind 4 kt from the South/Southwest
Temperature 16°C
Humidity 48%
Pressure 1009 hPa
Visibility 10 km or more
no clouds below 1500 m and no cumulonimbus

METAR: UNBB 161730Z 21002MPS CAVOK 16/05 Q1009 R24/CLRD66 NOSIG RMK QFE734

Time: 01:07 (18:07 UTC)

Forecast

The report was made 1 hour and 7 minutes ago, at 17:00 UTC
Forecast valid from 16 at 18 UTC to 17 at 18 UTC
Wind 6 kt from the South with gusts up to 16 kt
Visibility: 8000 m
Scattered clouds at a height of 4000 ft
Temporary
from 16 at 18 UTC to 17 at 03 UTC
Visibility: 0150 m
Broken clouds at a height of 200 ft
fog
Becoming
from 17 at 04 UTC to 17 at 05 UTC
Wind 14 kt from the South with gusts up to 25 kt

TAF: UNBB 161700Z 1618/1718 18003G08MPS 8000 SCT040 TEMPO 1618/1703 0150 FG BKN002 BECMG 1704/1705 18007G13MPS

Weather observations and forecasts of more than 4000 airports (METAR and TAF reports).

The available stations are represented by yellow and red dots on the map.

Hover mouse over dot to see the name of the station.

Then click to see weather observations and forecasts.

To change the map : click on the green buttons with a black cross to zoom in, on the green button with a dash to zoom out, or on the green arrows for adjacent maps.


METAR-TAF: